Time;durP1;ratioP1;P1;durP2;ratioP2;P2;SDS_P1;SDS_P2;PMS_P1;PMS_P2;Temp;Humidity;BMP_temperature;BMP_pressure;BME280_temperature;BME280_humidity;BME280_pressure;Samples;Min_cycle;Max_cycle;Signal;HPM_P1;HPM_P2
2022/11/20 00:00:45;;;;;;;8.07;3.05;;;;;;;18.23;63.02;96227.25;10440071;28;20506;-29
2022/11/20 00:05:46;;;;;;;6.33;3.17;;;;;;;18.25;62.81;96233.16;10436682;28;20033;-28
2022/11/20 00:10:46;;;;;;;13.43;3.78;;;;;;;18.24;62.84;96229.78;10442547;28;20323;-28
2022/11/20 00:15:46;;;;;;;10.73;3.35;;;;;;;18.24;62.98;96236.56;10447386;28;20480;-29
2022/11/20 00:20:47;;;;;;;9.27;3.60;;;;;;;18.25;63.04;96245.84;10447542;28;20388;-29
2022/11/20 00:25:47;;;;;;;7.27;3.40;;;;;;;18.25;63.07;96251.72;10429684;28;20488;-28
2022/11/20 00:30:47;;;;;;;11.93;3.27;;;;;;;18.25;63.11;96245.84;10444048;28;20492;-28
2022/11/20 00:35:48;;;;;;;15.53;4.20;;;;;;;18.27;63.43;96254.25;10446915;28;20478;-29
2022/11/20 00:40:54;;;;;;;10.53;2.90;;;;;;;18.28;63.00;96245.81;10432445;28;20075;-28
2022/11/20 00:45:58;;;;;;;8.07;3.28;;;;;;;18.26;62.91;96250.88;10431138;28;20071;-28
2022/11/20 00:50:59;;;;;;;5.82;2.60;;;;;;;18.25;63.22;96240.75;10437607;28;20068;-28
2022/11/20 00:56:03;;;;;;;13.50;3.40;;;;;;;18.26;63.20;96250.03;10444331;28;20087;-29
2022/11/20 01:01:09;;;;;;;8.00;2.95;;;;;;;18.23;62.36;96255.09;10435471;28;20035;-29
2022/11/20 01:06:11;;;;;;;6.53;2.53;;;;;;;18.23;62.77;96258.50;10431576;28;20072;-28
2022/11/20 01:11:14;;;;;;;8.35;2.90;;;;;;;18.19;62.39;96240.78;10442456;28;20025;-28
2022/11/20 01:16:21;;;;;;;6.57;2.63;;;;;;;18.24;63.84;96256.81;10443310;28;20078;-28
2022/11/20 01:21:33;;;;;;;7.43;2.97;;;;;;;18.26;63.22;96257.66;10436947;28;20084;-29
2022/11/20 01:26:36;;;;;;;7.18;2.60;;;;;;;18.27;63.11;96246.66;10431813;28;20314;-28
2022/11/20 01:31:36;;;;;;;5.60;2.40;;;;;;;18.24;63.49;96254.28;10441798;28;20027;-29
2022/11/20 01:36:38;;;;;;;7.45;2.60;;;;;;;18.21;62.94;96249.22;10443542;28;20055;-29
2022/11/20 01:47:02;;;;;;;6.68;2.40;;;;;;;18.23;62.03;96255.09;10427952;28;20041;-29
2022/11/20 01:52:07;;;;;;;5.82;2.70;;;;;;;18.22;63.14;96250.91;10432375;28;20127;-28
2022/11/20 01:57:10;;;;;;;6.43;2.38;;;;;;;18.20;63.45;96260.22;10445130;28;20376;-29
2022/11/20 02:02:11;;;;;;;7.13;2.70;;;;;;;18.25;63.22;96261.84;10434959;28;20110;-29
2022/11/20 02:07:11;;;;;;;8.03;2.10;;;;;;;18.25;63.15;96259.31;10428428;28;20033;-29
2022/11/20 02:13:42;;;;;;;6.32;2.72;;;;;;;18.24;63.22;96249.22;10445043;28;20283;-28
2022/11/20 02:17:32;;;;;;;3.50;2.20;;;;;;;18.23;62.68;96257.66;10441314;28;20029;-28
2022/11/20 02:22:42;;;;;;;3.47;2.10;;;;;;;18.23;62.46;96247.50;10433813;28;20506;-28
2022/11/20 02:27:42;;;;;;;4.60;2.33;;;;;;;18.23;62.43;96242.44;10427311;28;20092;-28
2022/11/20 02:32:43;;;;;;;7.85;3.03;;;;;;;18.22;62.70;96241.63;10440674;28;20063;-29
2022/11/20 02:37:45;;;;;;;6.10;2.17;;;;;;;18.24;63.23;96249.22;10429891;28;20029;-28
2022/11/20 02:42:46;;;;;;;6.47;2.33;;;;;;;18.25;63.61;96245.84;10441900;28;20632;-28
2022/11/20 02:47:46;;;;;;;7.70;2.27;;;;;;;18.25;63.21;96245.84;10430177;28;20071;-28
2022/11/20 02:52:47;;;;;;;4.20;1.93;;;;;;;18.25;63.30;96235.69;10435596;28;20025;-29
2022/11/20 02:57:47;;;;;;;5.13;2.43;;;;;;;18.24;63.07;96228.94;10450676;28;20032;-29
2022/11/20 03:02:47;;;;;;;5.73;2.53;;;;;;;18.23;62.92;96234.84;10443059;28;20411;-29
2022/11/20 03:07:48;;;;;;;7.30;2.15;;;;;;;18.24;63.04;96246.69;10435680;28;20036;-28
2022/11/20 03:12:54;;;;;;;8.95;2.25;;;;;;;18.22;62.87;96246.69;10450231;28;20392;-28
2022/11/20 03:17:55;;;;;;;4.20;2.23;;;;;;;18.19;63.30;96236.59;10447530;28;20025;-29
2022/11/20 03:22:55;;;;;;;4.15;1.95;;;;;;;18.22;63.48;96236.56;10438890;28;20456;-28
2022/11/20 03:27:56;;;;;;;4.60;2.40;;;;;;;18.25;63.38;96240.75;10441956;28;20036;-28
2022/11/20 03:32:56;;;;;;;4.00;1.97;;;;;;;18.26;63.43;96237.38;10447645;28;20029;-28
2022/11/20 03:37:57;;;;;;;6.57;2.00;;;;;;;18.21;63.11;96236.56;10441389;28;20777;-28
2022/11/20 03:42:57;;;;;;;4.20;2.00;;;;;;;18.21;63.36;96242.47;10448388;28;20410;-30
2022/11/20 03:47:58;;;;;;;4.87;1.90;;;;;;;18.21;63.18;96236.56;10447697;28;20032;-28
2022/11/20 03:52:58;;;;;;;8.20;1.90;;;;;;;18.22;62.91;96243.28;10438514;28;20033;-28
2022/11/20 03:57:59;;;;;;;5.33;2.43;;;;;;;18.19;63.27;96238.25;10443224;28;20033;-29
2022/11/20 04:03:00;;;;;;;4.33;1.87;;;;;;;18.22;63.49;96251.75;10440717;28;20048;-28
2022/11/20 04:08:01;;;;;;;5.50;1.80;;;;;;;18.24;63.73;96249.22;10442675;28;20414;-28
2022/11/20 04:13:01;;;;;;;5.93;1.73;;;;;;;18.24;63.30;96254.28;10448459;28;20044;-28
2022/11/20 04:18:02;;;;;;;3.80;1.50;;;;;;;18.19;63.15;96245.84;10444921;28;20429;-28
2022/11/20 04:23:02;;;;;;;8.98;1.85;;;;;;;18.18;63.35;96246.72;10435331;28;20086;-28
2022/11/20 04:28:03;;;;;;;4.90;2.10;;;;;;;18.18;63.46;96249.25;10440179;28;20482;-28
2022/11/20 04:33:03;;;;;;;8.43;1.70;;;;;;;18.17;63.35;96242.50;10442669;28;20627;-28
2022/11/20 04:38:04;;;;;;;4.00;1.70;;;;;;;18.17;63.29;96247.56;10432942;28;20036;-28
2022/11/20 04:43:04;;;;;;;3.63;1.65;;;;;;;18.19;63.49;96240.78;10446859;28;20029;-28
2022/11/20 04:48:05;;;;;;;6.90;1.60;;;;;;;18.25;63.35;96231.44;10439219;28;20035;-28
2022/11/20 04:53:05;;;;;;;2.55;2.17;;;;;;;18.24;63.12;96237.38;10434567;28;20033;-31
2022/11/20 04:58:06;;;;;;;5.43;2.03;;;;;;;18.21;63.39;96241.63;10446899;28;20404;-28
2022/11/20 05:03:06;;;;;;;4.72;1.98;;;;;;;18.19;63.03;96233.19;10441216;28;20037;-28
2022/11/20 05:08:07;;;;;;;5.22;2.00;;;;;;;18.19;63.17;96239.13;10433053;28;20053;-29
2022/11/20 05:13:07;;;;;;;4.07;1.53;;;;;;;18.19;63.35;96240.78;10441847;28;20079;-28
2022/11/20 05:18:07;;;;;;;2.70;1.53;;;;;;;18.18;63.03;96244.19;10438151;28;20044;-28
2022/11/20 05:23:08;;;;;;;10.07;2.23;;;;;;;18.19;62.99;96240.78;10434249;28;20037;-28
2022/11/20 05:28:08;;;;;;;3.97;1.90;;;;;;;18.25;63.63;96239.06;10437221;28;20037;-29
2022/11/20 05:33:09;;;;;;;3.17;2.23;;;;;;;18.28;62.97;96245.81;10439170;28;20025;-28
2022/11/20 05:38:09;;;;;;;6.22;1.65;;;;;;;18.24;63.32;96239.09;10436386;28;20036;-28
2022/11/20 05:43:10;;;;;;;2.00;1.40;;;;;;;18.22;62.94;96240.75;10443008;28;20376;-28
2022/11/20 05:48:10;;;;;;;4.43;2.10;;;;;;;18.24;62.88;96250.03;10434575;28;20395;-28
2022/11/20 05:53:10;;;;;;;3.25;1.23;;;;;;;18.20;63.10;96237.41;10431726;28;20456;-28
2022/11/20 05:58:11;;;;;;;5.07;1.87;;;;;;;18.17;63.04;96227.31;10440874;28;20036;-29
2022/11/20 06:03:11;;;;;;;3.70;1.80;;;;;;;18.19;63.26;96235.72;10433399;28;20028;-28
2022/11/20 06:08:12;;;;;;;6.50;2.20;;;;;;;18.24;63.39;96234.00;10437998;28;20044;-28
2022/11/20 06:13:12;;;;;;;5.22;1.95;;;;;;;18.26;63.43;96234.84;10439746;28;20036;-29
2022/11/20 06:18:12;;;;;;;5.57;2.33;;;;;;;18.28;63.19;96240.72;10440130;28;20028;-29
2022/11/20 06:23:13;;;;;;;5.63;1.70;;;;;;;18.26;63.36;96248.34;10432299;28;20399;-28
2022/11/20 06:28:13;;;;;;;8.98;2.20;;;;;;;18.24;63.69;96234.00;10437769;28;20055;-28
2022/11/20 06:33:14;;;;;;;5.87;2.00;;;;;;;18.26;62.25;96229.78;10442429;28;20426;-28
2022/11/20 06:38:14;;;;;;;7.50;1.90;;;;;;;18.30;62.39;96233.97;10441718;28;20479;-29
2022/11/20 06:43:14;;;;;;;6.27;2.30;;;;;;;18.20;63.21;96252.59;10445824;28;20381;-28
2022/11/20 06:48:15;;;;;;;6.77;2.23;;;;;;;18.30;61.86;96254.25;10437465;28;20024;-29
2022/11/20 06:53:15;;;;;;;6.40;1.73;;;;;;;18.33;59.80;96259.31;10451677;28;20422;-28
2022/11/20 06:58:16;;;;;;;3.15;1.60;;;;;;;18.32;60.43;96252.56;10451778;28;20715;-29
2022/11/20 07:03:17;;;;;;;6.07;2.33;;;;;;;18.30;62.39;96250.03;10444746;28;20113;-29
2022/11/20 07:08:17;;;;;;;9.43;2.97;;;;;;;18.33;62.34;96259.31;10445487;28;20040;-29
2022/11/20 07:13:18;;;;;;;14.37;2.33;;;;;;;18.33;62.71;96259.31;10444990;28;20029;-29
2022/11/20 07:18:18;;;;;;;11.80;2.80;;;;;;;18.34;62.06;96268.59;10444628;28;20037;-28
2022/11/20 07:23:18;;;;;;;12.93;2.67;;;;;;;18.33;62.12;96279.59;10439138;28;20295;-28
2022/11/20 07:28:19;;;;;;;6.50;2.85;;;;;;;18.35;63.41;96272.81;10451122;28;20047;-28
2022/11/20 07:33:19;;;;;;;10.67;2.80;;;;;;;18.44;63.62;96281.22;10441031;28;20465;-30
2022/11/20 07:38:20;;;;;;;9.15;2.45;;;;;;;18.26;64.90;96276.22;10441168;28;20044;-29
2022/11/20 07:43:20;;;;;;;8.23;2.40;;;;;;;18.31;63.61;96272.00;10439478;28;20028;-30
2022/11/20 07:48:21;;;;;;;8.25;2.50;;;;;;;18.25;64.04;96255.97;10424288;28;20295;-30
2022/11/20 07:53:22;;;;;;;4.57;2.50;;;;;;;18.36;62.89;96264.38;10436751;28;20032;-30
2022/11/20 07:58:22;;;;;;;11.63;2.78;;;;;;;18.34;64.05;96282.09;10428179;28;20056;-29
2022/11/20 08:03:23;;;;;;;6.77;2.37;;;;;;;18.32;64.46;96281.28;10434061;28;20111;-29
2022/11/20 08:08:24;;;;;;;8.13;2.63;;;;;;;18.29;62.03;96293.09;10437468;28;20078;-30
2022/11/20 08:18:43;;;;;;;7.47;1.90;;;;;;;18.21;62.97;96320.16;10436556;28;20127;-29
2022/11/20 08:23:43;;;;;;;6.47;1.73;;;;;;;18.08;62.45;96310.97;10430116;28;20044;-30
2022/11/20 08:28:45;;;;;;;4.80;1.60;;;;;;;18.01;60.53;96316.91;10439346;28;20033;-29
2022/11/20 08:33:45;;;;;;;6.72;1.75;;;;;;;17.94;59.54;96321.16;10433127;28;20033;-29
2022/11/20 08:39:04;;;;;;;5.73;1.67;;;;;;;17.89;58.26;96322.00;10435746;28;20037;-30
2022/11/20 08:44:06;;;;;;;5.25;1.75;;;;;;;17.96;59.58;96331.25;10437973;28;20032;-29
2022/11/20 08:49:10;;;;;;;15.05;2.75;;;;;;;18.13;61.14;96337.09;10433850;28;20107;-31
2022/11/20 08:54:10;;;;;;;6.18;1.40;;;;;;;18.14;59.18;96341.31;10440695;28;20095;-29
2022/11/20 08:59:11;;;;;;;6.50;1.30;;;;;;;17.90;55.32;96333.84;10434899;28;20384;-29
2022/11/20 09:04:14;;;;;;;5.80;1.20;;;;;;;17.93;56.82;96343.94;10439029;28;20287;-29
2022/11/20 09:09:14;;;;;;;2.90;1.30;;;;;;;18.01;58.08;96342.22;10442143;28;20063;-28
2022/11/20 09:14:15;;;;;;;2.43;1.03;;;;;;;18.06;59.39;96350.63;10440092;28;20412;-29
2022/11/20 09:19:15;;;;;;;4.25;1.30;;;;;;;18.10;60.05;96347.25;10435388;28;20488;-29
2022/11/20 09:24:16;;;;;;;2.67;1.40;;;;;;;18.07;60.62;96347.28;10429657;28;20033;-30
2022/11/20 09:29:16;;;;;;;2.88;1.17;;;;;;;18.12;60.84;96360.75;10434617;28;20295;-31
2022/11/20 09:34:16;;;;;;;4.03;1.30;;;;;;;18.12;61.02;96358.22;10433119;28;20028;-30
2022/11/20 09:39:17;;;;;;;3.90;1.33;;;;;;;18.14;60.79;96364.09;10430801;28;20414;-29
2022/11/20 09:44:36;;;;;;;4.53;1.17;;;;;;;18.13;61.60;96367.50;10432076;28;20087;-30
2022/11/20 09:50:01;;;;;;;6.95;1.40;;;;;;;18.12;61.75;96370.88;10429783;28;20032;-29
2022/11/20 09:55:03;;;;;;;3.38;1.13;;;;;;;18.08;61.74;96364.16;10426118;28;20044;-29
2022/11/20 10:00:06;;;;;;;4.10;1.20;;;;;;;18.09;61.86;96374.25;10431388;28;20081;-29
2022/11/20 10:05:24;;;;;;;3.95;1.40;;;;;;;18.10;61.87;96377.66;10437459;28;20040;-29
2022/11/20 10:10:41;;;;;;;2.95;1.30;;;;;;;18.07;62.06;96372.59;10433466;28;20021;-29
2022/11/20 10:15:53;;;;;;;2.08;1.50;;;;;;;18.15;61.98;96376.78;10426249;28;20112;-30
2022/11/20 10:21:12;;;;;;;2.33;1.20;;;;;;;18.11;62.11;96371.72;10432758;28;20168;-32
2022/11/20 10:26:46;;;;;;;5.90;1.33;;;;;;;18.12;62.16;96365.81;10425981;28;20054;-29
2022/11/20 10:31:51;;;;;;;2.97;1.10;;;;;;;18.08;62.24;96361.63;10426096;28;20032;-28
2022/11/20 10:36:59;;;;;;;4.03;1.20;;;;;;;18.08;62.44;96356.56;10424020;28;20476;-30
2022/11/20 10:42:00;;;;;;;1.98;0.90;;;;;;;18.03;62.58;96360.78;10435110;28;20088;-29
2022/11/20 10:47:01;;;;;;;2.90;1.05;;;;;;;18.01;62.74;96358.25;10423740;28;20553;-29
2022/11/20 10:52:17;;;;;;;2.13;1.30;;;;;;;18.09;62.45;96350.63;10439310;28;20029;-30
2022/11/20 10:57:29;;;;;;;5.07;1.27;;;;;;;18.10;62.16;96344.72;10432405;28;20414;-29
2022/11/20 11:02:41;;;;;;;1.55;0.90;;;;;;;18.09;62.46;96332.91;10436095;28;20108;-30
2022/11/20 11:07:43;;;;;;;1.70;1.10;;;;;;;18.08;62.33;96331.22;10433847;28;20434;-32
2022/11/20 11:12:47;;;;;;;2.45;0.80;;;;;;;18.03;62.70;96325.31;10438832;28;20030;-30
2022/11/20 11:17:48;;;;;;;1.85;1.15;;;;;;;18.00;62.54;96326.16;10442777;28;20037;-29
2022/11/20 11:22:50;;;;;;;1.37;1.10;;;;;;;18.00;62.67;96310.16;10432432;28;20064;-29
2022/11/20 11:27:51;;;;;;;1.00;0.98;;;;;;;17.97;62.73;96310.16;10435984;28;20284;-30
2022/11/20 11:33:04;;;;;;;1.65;0.90;;;;;;;18.04;62.66;96305.06;10437054;28;20079;-30
2022/11/20 11:38:12;;;;;;;3.00;1.00;;;;;;;18.07;62.29;96291.53;10431027;28;20024;-29
2022/11/20 11:48:41;;;;;;;2.13;1.20;;;;;;;18.00;62.80;96275.50;10430915;28;20034;-29
2022/11/20 11:53:42;;;;;;;2.80;1.10;;;;;;;17.97;62.93;96259.50;10437618;28;20492;-29
2022/11/20 11:58:49;;;;;;;1.48;0.70;;;;;;;17.97;63.03;96254.44;10431303;28;20458;-29
2022/11/20 12:03:58;;;;;;;;;;;;;;;17.92;62.97;96246.03;10442161;28;20041;-30
2022/11/20 12:09:09;;;;;;;1.67;0.90;;;;;;;17.95;63.02;96246.00;10437301;28;20410;-30
2022/11/20 12:14:34;;;;;;;1.15;0.90;;;;;;;18.01;63.12;96246.81;10441798;28;20021;-30
2022/11/20 12:19:34;;;;;;;2.78;2.05;;;;;;;18.03;62.99;96234.13;10436825;28;20041;-29
2022/11/20 12:25:05;;;;;;;2.17;1.02;;;;;;;18.03;63.02;96242.59;10434611;28;20029;-29
2022/11/20 12:30:15;;;;;;;2.00;0.90;;;;;;;17.98;63.04;96246.00;10437079;28;20087;-29
2022/11/20 12:35:34;;;;;;;2.08;1.10;;;;;;;17.95;63.18;96246.84;10435303;28;20483;-30
2022/11/20 12:40:46;;;;;;;1.27;1.15;;;;;;;17.95;62.95;96235.88;10433138;28;20123;-29
2022/11/20 12:46:07;;;;;;;2.08;1.00;;;;;;;17.95;63.04;96241.78;10430916;28;20451;-30
2022/11/20 12:51:29;;;;;;;1.67;0.93;;;;;;;17.96;63.13;96237.56;10437713;28;20029;-29
2022/11/20 12:56:53;;;;;;;1.58;0.60;;;;;;;17.97;63.00;96234.16;10437106;28;20117;-29
2022/11/20 13:02:05;;;;;;;1.02;0.80;;;;;;;18.03;62.96;96244.28;10426499;28;20119;-29
2022/11/20 13:07:09;;;;;;;1.20;0.75;;;;;;;18.01;63.03;96240.91;10438114;28;20048;-29
2022/11/20 13:12:35;;;;;;;3.05;0.95;;;;;;;18.02;62.83;96238.38;10442340;28;20490;-29
2022/11/20 13:17:38;;;;;;;1.88;0.80;;;;;;;18.03;62.90;96229.94;10437085;28;20091;-29
2022/11/20 13:22:43;;;;;;;1.52;0.70;;;;;;;18.03;62.59;96224.88;10427055;28;20061;-29
2022/11/20 13:27:48;;;;;;;1.17;0.70;;;;;;;18.03;62.55;96213.88;10431510;28;20021;-29
2022/11/20 13:33:06;;;;;;;0.60;0.60;;;;;;;18.13;62.48;96205.34;10436699;28;20480;-29
2022/11/20 13:38:14;;;;;;;1.50;0.85;;;;;;;18.16;62.20;96192.69;10433485;28;20474;-29
2022/11/20 13:43:23;;;;;;;1.27;0.68;;;;;;;18.11;61.46;96181.75;10436336;28;20041;-30
2022/11/20 13:48:28;;;;;;;1.20;0.77;;;;;;;18.14;62.15;96194.38;10429054;28;20029;-29
2022/11/20 13:54:09;;;;;;;2.15;0.90;;;;;;;18.11;62.40;96199.47;10434025;28;20034;-29
2022/11/20 13:59:37;;;;;;;1.45;0.90;;;;;;;18.09;62.27;96188.50;10431332;28;20079;-29
2022/11/20 14:04:48;;;;;;;0.90;0.70;;;;;;;18.11;62.03;96191.88;10433792;28;20063;-30
2022/11/20 14:09:52;;;;;;;1.10;0.70;;;;;;;18.14;62.29;96191.84;10426138;28;20133;-29
2022/11/20 14:14:54;;;;;;;1.27;0.90;;;;;;;18.18;62.34;96180.84;10437294;28;20029;-30
2022/11/20 14:19:59;;;;;;;0.93;0.77;;;;;;;18.19;62.29;96169.84;10436140;28;20033;-29
2022/11/20 14:25:01;;;;;;;1.52;0.70;;;;;;;18.18;62.14;96173.25;10432393;28;20462;-29
2022/11/20 14:30:02;;;;;;;0.70;0.70;;;;;;;18.14;62.20;96164.81;10433351;28;20041;-29
2022/11/20 14:35:09;;;;;;;1.25;0.85;;;;;;;18.11;62.32;96151.34;10431629;28;20037;-29
2022/11/20 14:40:28;;;;;;;0.90;0.57;;;;;;;18.11;62.21;96142.06;10429413;28;20071;-30
2022/11/20 14:45:29;;;;;;;0.60;0.60;;;;;;;18.13;62.17;96129.34;10427849;28;20029;-29
2022/11/20 14:50:30;;;;;;;1.48;0.70;;;;;;;18.12;62.33;96099.81;10440417;28;20033;-29
2022/11/20 14:55:37;;;;;;;0.82;0.68;;;;;;;18.19;62.20;96103.97;10443810;28;20033;-29
2022/11/20 15:00:37;;;;;;;;;;;;;;;18.20;62.19;96095.53;10443836;28;20483;-30
2022/11/20 15:05:46;;;;;;;1.40;0.70;;;;;;;18.18;62.16;96103.13;10442142;28;19913;-29
2022/11/20 15:10:49;;;;;;;0.75;0.57;;;;;;;18.14;62.24;96098.97;10442739;28;20017;-30
2022/11/20 15:15:51;;;;;;;2.10;0.75;;;;;;;18.13;62.10;96106.56;10444005;28;20100;-29
2022/11/20 15:20:55;;;;;;;0.85;0.50;;;;;;;18.14;62.17;96091.34;10441026;28;20557;-31
2022/11/20 15:25:56;;;;;;;0.80;0.73;;;;;;;18.12;62.34;96092.22;10438820;28;20033;-29
2022/11/20 15:30:56;;;;;;;1.38;0.60;;;;;;;18.09;62.36;96084.66;10439065;28;20033;-31
2022/11/20 15:35:57;;;;;;;0.98;0.60;;;;;;;18.15;62.39;96087.16;10439386;28;20037;-30
2022/11/20 15:40:58;;;;;;;0.80;0.70;;;;;;;18.19;61.95;96084.56;10430865;28;20038;-30
2022/11/20 15:46:05;;;;;;;0.50;0.50;;;;;;;18.18;61.93;96061.78;10441227;28;20044;-30
2022/11/20 15:51:11;;;;;;;0.90;0.73;;;;;;;18.14;62.06;96057.56;10436590;28;20099;-30
2022/11/20 15:56:13;;;;;;;0.80;0.52;;;;;;;18.15;62.15;96054.22;10442171;28;20098;-30
2022/11/20 16:01:19;;;;;;;1.08;0.80;;;;;;;18.06;56.59;96041.59;10433188;28;20041;-28
2022/11/20 16:06:19;;;;;;;1.67;1.00;;;;;;;17.90;57.12;96060.34;10437266;28;20041;-29
2022/11/20 16:11:20;;;;;;;3.85;1.60;;;;;;;17.90;58.76;96061.16;10447756;28;20029;-28
2022/11/20 16:16:25;;;;;;;4.30;1.38;;;;;;;18.03;59.44;96072.03;10433939;28;20033;-31
2022/11/20 16:21:30;;;;;;;3.55;1.33;;;;;;;18.08;59.85;96076.19;10427651;28;20076;-30
2022/11/20 16:26:31;;;;;;;7.80;1.33;;;;;;;18.15;60.07;96079.53;10428904;28;20095;-29
2022/11/20 16:31:32;;;;;;;2.20;1.20;;;;;;;18.10;60.41;96087.19;10433874;28;20035;-30
2022/11/20 16:36:33;;;;;;;3.08;1.08;;;;;;;18.06;60.51;96087.19;10430757;28;20036;-30
2022/11/20 16:41:34;;;;;;;3.42;1.08;;;;;;;18.15;61.66;96074.47;10435557;28;20406;-30
2022/11/20 16:46:35;;;;;;;8.98;1.55;;;;;;;18.13;60.83;96068.56;10431161;28;20454;-31
2022/11/20 16:51:35;;;;;;;3.15;1.13;;;;;;;18.10;61.10;96048.34;10419926;28;20103;-30
2022/11/20 16:56:36;;;;;;;4.05;1.15;;;;;;;18.08;61.08;96075.38;10437339;28;20039;-29
2022/11/20 17:01:39;;;;;;;5.13;1.25;;;;;;;18.07;60.27;96059.34;10430509;28;20115;-31
2022/11/20 17:06:46;;;;;;;2.78;0.95;;;;;;;18.07;60.16;96063.56;10429504;28;20083;-30
2022/11/20 17:11:47;;;;;;;3.08;1.65;;;;;;;18.10;59.87;96055.94;10436941;28;20113;-29
2022/11/20 17:16:48;;;;;;;3.63;1.55;;;;;;;18.14;60.03;96060.09;10432348;28;20043;-31
2022/11/20 17:21:48;;;;;;;3.65;0.95;;;;;;;18.16;59.99;96066.84;10428276;28;20026;-30
2022/11/20 17:26:48;;;;;;;2.22;1.30;;;;;;;18.15;60.09;96071.94;10439623;28;20090;-30
2022/11/20 17:31:49;;;;;;;2.97;1.23;;;;;;;18.15;60.32;96066.88;10434930;28;20037;-30
2022/11/20 17:36:50;;;;;;;2.55;0.98;;;;;;;18.15;60.51;96061.81;10425884;28;20053;-30
2022/11/20 17:42:25;;;;;;;3.58;1.33;;;;;;;18.10;60.54;96064.38;10437634;28;20032;-29
2022/11/20 17:47:10;;;;;;;4.10;1.20;;;;;;;18.08;61.38;96065.25;10429224;28;20110;-31
2022/11/20 17:52:11;;;;;;;4.18;1.38;;;;;;;18.16;61.13;96060.97;10436117;28;20037;-30
2022/11/20 18:02:30;;;;;;;3.63;1.20;;;;;;;18.10;60.71;96040.75;10430807;28;20487;-30
2022/11/20 18:07:31;;;;;;;4.87;1.67;;;;;;;18.16;60.93;96044.03;10435587;28;20037;-29
2022/11/20 18:12:31;;;;;;;8.90;2.13;;;;;;;18.13;61.54;96053.38;10439468;28;20045;-30
2022/11/20 18:17:31;;;;;;;4.87;1.30;;;;;;;18.10;61.55;96053.41;10429237;28;20029;-30
2022/11/20 18:22:32;;;;;;;3.50;1.30;;;;;;;18.09;61.51;96067.75;10423746;28;20075;-30
2022/11/20 18:27:32;;;;;;;8.57;2.30;;;;;;;18.09;61.58;96077.06;10444394;28;20323;-30
2022/11/20 18:32:34;;;;;;;3.07;1.30;;;;;;;18.14;61.86;96088.81;10437360;28;20056;-30
2022/11/20 18:37:34;;;;;;;4.13;1.38;;;;;;;18.14;61.68;96085.44;10438805;28;20033;-29
2022/11/20 18:47:54;;;;;;;3.20;1.20;;;;;;;18.17;61.42;96093.03;10435406;28;20458;-29
2022/11/20 18:52:55;;;;;;;7.80;1.40;;;;;;;18.08;61.72;96078.75;10435748;28;20040;-30
2022/11/20 18:57:55;;;;;;;1.97;1.70;;;;;;;18.06;61.18;96064.41;10437786;28;20765;-30
2022/11/20 19:02:56;;;;;;;3.97;1.47;;;;;;;18.05;61.91;96055.97;10437686;28;20295;-29
2022/11/20 19:07:56;;;;;;;5.07;1.30;;;;;;;18.09;61.43;96055.09;10436479;28;20033;-29
2022/11/20 19:12:57;;;;;;;4.67;1.57;;;;;;;18.09;61.59;96056.78;10441186;28;20783;-29
2022/11/20 19:18:00;;;;;;;6.53;1.80;;;;;;;18.09;61.32;96052.56;10435436;28;20040;-30
2022/11/20 19:23:00;;;;;;;3.53;1.80;;;;;;;18.12;61.40;96047.47;10424885;28;20319;-29
2022/11/20 19:28:00;;;;;;;5.03;1.88;;;;;;;18.04;61.38;96040.78;10441274;28;20045;-30
2022/11/20 19:33:01;;;;;;;3.53;1.33;;;;;;;18.12;61.40;96036.50;10431688;28;20029;-31
2022/11/20 19:38:01;;;;;;;3.30;1.30;;;;;;;18.11;60.18;96044.94;10436987;28;20040;-30
2022/11/20 19:43:03;;;;;;;3.70;1.33;;;;;;;18.01;59.47;96039.13;10436333;28;20041;-29
2022/11/20 19:48:04;;;;;;;2.85;1.55;;;;;;;18.05;58.81;96047.53;10426529;28;20463;-30
2022/11/20 19:53:06;;;;;;;2.78;1.50;;;;;;;18.04;58.67;96053.44;10442028;28;20039;-31
2022/11/20 19:58:06;;;;;;;3.88;2.28;;;;;;;17.97;61.01;96042.53;10434896;28;20037;-31
2022/11/20 20:03:06;;;;;;;2.83;1.17;;;;;;;17.99;58.96;96033.22;10434882;28;20029;-30
2022/11/20 20:08:07;;;;;;;2.80;0.90;;;;;;;17.98;58.96;96028.19;10433854;28;20475;-30
2022/11/20 20:13:07;;;;;;;6.73;2.67;;;;;;;17.94;58.97;96056.91;10438697;28;20029;-31
2022/11/20 20:18:08;;;;;;;3.97;1.50;;;;;;;18.00;60.04;96064.47;10435925;28;20283;-29
2022/11/20 20:23:08;;;;;;;1.80;1.13;;;;;;;17.95;59.14;96056.91;10423629;28;20067;-30
2022/11/20 20:28:08;;;;;;;3.63;1.33;;;;;;;17.94;60.69;96067.91;10437134;28;20040;-30
2022/11/20 20:33:09;;;;;;;2.47;1.33;;;;;;;17.95;58.43;96063.66;10429581;28;20411;-29
2022/11/20 20:38:09;;;;;;;1.60;1.10;;;;;;;17.89;58.80;96059.50;10431393;28;20032;-30
2022/11/20 20:43:09;;;;;;;2.63;1.40;;;;;;;17.96;58.15;96080.53;10432436;28;20102;-29
2022/11/20 20:48:10;;;;;;;1.30;0.80;;;;;;;17.98;58.26;96088.97;10433772;28;20311;-29
2022/11/20 20:53:10;;;;;;;1.60;0.63;;;;;;;17.99;58.15;96116.00;10440107;28;20033;-30
2022/11/20 20:58:11;;;;;;;4.00;1.07;;;;;;;17.93;58.83;96105.88;10436778;28;20321;-30
2022/11/20 21:03:11;;;;;;;2.93;1.37;;;;;;;17.86;59.41;96114.38;10435807;28;20291;-29
2022/11/20 21:08:20;;;;;;;4.73;0.90;;;;;;;17.74;56.93;96105.19;10433769;28;20087;-30
2022/11/20 21:13:22;;;;;;;1.42;0.90;;;;;;;17.74;58.71;96063.84;10439569;28;20029;-30
2022/11/20 21:18:24;;;;;;;2.65;0.77;;;;;;;17.95;57.61;96091.53;10437263;28;20158;-30
2022/11/20 21:23:24;;;;;;;3.60;1.00;;;;;;;17.91;58.81;96107.59;10427000;28;20037;-32
2022/11/20 21:28:24;;;;;;;1.40;0.80;;;;;;;17.91;58.98;96107.59;10437945;28;20040;-29
2022/11/20 21:33:25;;;;;;;3.03;0.90;;;;;;;17.89;59.29;96084.81;10433438;28;20283;-30
2022/11/20 21:38:25;;;;;;;1.43;0.90;;;;;;;17.91;59.23;96082.28;10431701;28;20290;-30
2022/11/20 21:43:26;;;;;;;1.07;0.60;;;;;;;17.89;59.69;96078.91;10431572;28;20195;-30
2022/11/20 21:48:30;;;;;;;2.63;0.93;;;;;;;17.91;59.64;96082.28;10430032;28;20029;-30
2022/11/20 21:53:31;;;;;;;4.10;1.10;;;;;;;17.88;59.86;96073.00;10440644;28;20646;-29
2022/11/20 21:58:33;;;;;;;4.68;1.00;;;;;;;17.88;59.75;96087.34;10441521;28;20039;-29
2022/11/20 22:03:34;;;;;;;1.95;0.88;;;;;;;17.89;59.71;96083.97;10442675;28;20400;-29
2022/11/20 22:08:36;;;;;;;2.53;0.90;;;;;;;17.99;59.57;96072.94;10435725;28;20068;-30
2022/11/20 22:18:56;;;;;;;3.05;1.10;;;;;;;17.95;59.93;96084.78;10430513;28;20033;-31
2022/11/20 22:23:58;;;;;;;1.40;0.85;;;;;;;17.89;59.82;96083.97;10434690;28;20090;-30
2022/11/20 22:28:58;;;;;;;2.58;0.85;;;;;;;17.87;60.07;96076.41;10436913;28;20038;-30
2022/11/20 22:34:01;;;;;;;3.33;1.00;;;;;;;17.87;59.73;96101.72;10438448;28;20554;-29
2022/11/20 22:39:02;;;;;;;5.13;0.85;;;;;;;17.83;59.95;96101.75;10433423;28;20087;-30
2022/11/20 22:44:05;;;;;;;3.70;0.73;;;;;;;17.84;59.86;96113.56;10434707;28;20083;-30
2022/11/20 22:49:10;;;;;;;4.50;0.90;;;;;;;17.82;59.80;96112.75;10432404;28;20025;-30
2022/11/20 22:54:11;;;;;;;2.10;1.20;;;;;;;17.80;60.15;96106.81;10435885;28;20445;-30
2022/11/20 22:59:11;;;;;;;1.63;0.68;;;;;;;17.80;59.73;96119.47;10434852;28;20075;-29
2022/11/20 23:04:12;;;;;;;1.47;0.60;;;;;;;17.84;59.70;96106.78;10436567;28;20298;-29
2022/11/20 23:09:12;;;;;;;2.00;0.82;;;;;;;17.91;59.56;96108.44;10435265;28;20029;-29
2022/11/20 23:14:14;;;;;;;2.65;0.63;;;;;;;17.85;59.68;96105.09;10444077;28;20099;-29
2022/11/20 23:19:14;;;;;;;2.17;0.75;;;;;;;17.82;59.85;96123.69;10441357;28;20510;-30
2022/11/20 23:24:15;;;;;;;1.25;0.55;;;;;;;17.74;59.96;96089.16;10431826;28;20048;-30
2022/11/20 23:29:15;;;;;;;4.37;0.90;;;;;;;17.80;60.03;96104.28;10439285;28;20082;-30
2022/11/20 23:34:15;;;;;;;4.30;0.77;;;;;;;17.74;60.03;96095.06;10436873;28;20029;-29
2022/11/20 23:39:16;;;;;;;0.82;0.63;;;;;;;17.79;59.97;96106.00;10436964;28;20418;-30
2022/11/20 23:44:16;;;;;;;2.63;0.70;;;;;;;17.76;59.85;96098.41;10435622;28;20030;-30
2022/11/20 23:49:17;;;;;;;2.30;0.70;;;;;;;17.78;59.77;96093.34;10433560;28;20078;-30
2022/11/20 23:54:17;;;;;;;1.43;0.77;;;;;;;17.76;59.97;96095.88;10444925;28;20029;-30
2022/11/20 23:59:18;;;;;;;1.33;0.70;;;;;;;17.77;59.97;96099.25;10438477;28;20279;-30
